createdAt,value
2022-09-05T00:00:11.504Z,18.90
2022-09-05T00:04:25.455Z,18.80
2022-09-05T00:08:25.158Z,18.70
2022-09-05T00:12:33.032Z,18.60
2022-09-05T00:16:56.220Z,18.50
2022-09-05T00:24:26.770Z,18.30
2022-09-05T00:25:32.859Z,18.10
2022-09-05T00:31:51.093Z,18.30
2022-09-05T00:34:05.960Z,18.00
2022-09-05T00:38:12.777Z,18.00
2022-09-05T00:42:17.487Z,18.10
2022-09-05T00:46:32.092Z,18.00
2022-09-05T00:51:04.774Z,18.00
2022-09-05T00:55:12.192Z,17.10
2022-09-05T00:59:25.723Z,17.40
2022-09-05T01:03:36.868Z,17.60
2022-09-05T01:08:01.332Z,17.90
2022-09-05T01:12:22.907Z,17.90
2022-09-05T01:16:57.997Z,18.00
2022-09-05T01:21:08.883Z,17.80
2022-09-05T01:25:28.852Z,17.70
2022-09-05T01:29:39.754Z,17.50
2022-09-05T01:33:56.664Z,17.60
2022-09-05T01:38:30.121Z,17.50
2022-09-05T01:43:10.165Z,17.30
2022-09-05T01:47:31.928Z,17.10
2022-09-05T01:51:45.957Z,17.30
2022-09-05T01:56:11.053Z,17.40
2022-09-05T02:00:21.318Z,17.20
2022-09-05T02:04:45.766Z,17.20
2022-09-05T02:09:20.249Z,17.10
2022-09-05T02:13:36.993Z,17.10
2022-09-05T02:17:50.851Z,16.90
2022-09-05T02:22:00.639Z,16.70
2022-09-05T02:26:08.452Z,17.00
2022-09-05T02:30:21.395Z,16.90
2022-09-05T02:34:29.001Z,16.40
2022-09-05T02:44:39.483Z,16.20
2022-09-05T02:45:16.499Z,16.80
2022-09-05T02:47:21.855Z,16.80
2022-09-05T02:57:23.868Z,16.80
2022-09-05T02:57:35.920Z,16.50
2022-09-05T03:00:22.812Z,16.70
2022-09-05T03:04:35.953Z,16.70
2022-09-05T03:09:17.467Z,16.20
2022-09-05T03:13:59.384Z,16.50
2022-09-05T03:18:20.025Z,16.40
2022-09-05T03:22:56.824Z,16.70
2022-09-05T03:27:13.346Z,16.70
2022-09-05T03:31:24.337Z,16.60
2022-09-05T03:35:47.461Z,16.40
2022-09-05T03:40:29.531Z,16.50
2022-09-05T03:44:59.039Z,16.30
2022-09-05T03:50:03.764Z,16.30
2022-09-05T03:57:23.406Z,16.30
2022-09-05T03:57:48.709Z,16.30
2022-09-05T04:07:32.422Z,16.30
2022-09-05T04:08:21.887Z,16.30
2022-09-05T04:10:59.257Z,16.20
2022-09-05T04:15:09.753Z,16.20
2022-09-05T04:19:29.939Z,15.00
2022-09-05T04:24:08.625Z,15.60
2022-09-05T04:28:22.799Z,16.30
2022-09-05T04:32:54.946Z,16.50
2022-09-05T04:37:08.121Z,16.10
2022-09-05T04:41:12.703Z,16.00
2022-09-05T04:45:17.460Z,16.20
2022-09-05T04:49:28.750Z,15.90
2022-09-05T04:58:11.299Z,15.00
2022-09-05T05:06:08.916Z,16.30
2022-09-05T05:06:43.921Z,16.60
2022-09-05T05:14:09.280Z,16.80
2022-09-05T05:18:09.959Z,16.60
2022-09-05T05:19:21.617Z,16.70
2022-09-05T05:23:43.393Z,16.90
2022-09-05T05:27:48.219Z,16.60
2022-09-05T05:31:56.251Z,15.40
2022-09-05T05:36:00.882Z,15.40
2022-09-05T05:40:12.004Z,17.00
2022-09-05T05:44:15.883Z,17.60
2022-09-05T05:48:23.403Z,17.70
2022-09-05T05:53:03.275Z,17.70
2022-09-05T05:57:19.434Z,17.70
2022-09-05T06:01:37.987Z,18.00
2022-09-05T06:05:45.532Z,18.20
2022-09-05T06:14:51.529Z,18.60
2022-09-05T06:15:07.081Z,19.00
2022-09-05T06:19:00.859Z,19.60
2022-09-05T06:23:28.816Z,20.40
2022-09-05T06:28:17.386Z,21.20
2022-09-05T06:32:05.365Z,21.90
2022-09-05T06:36:35.786Z,22.80
2022-09-05T06:40:43.934Z,23.10
2022-09-05T06:45:27.041Z,23.20
2022-09-05T06:49:29.965Z,23.60
2022-09-05T06:53:46.884Z,24.20
2022-09-05T06:58:08.297Z,24.80
2022-09-05T07:02:16.373Z,25.40
2022-09-05T07:06:34.342Z,25.90
2022-09-05T07:10:41.564Z,24.40
2022-09-05T07:15:08.187Z,21.80
2022-09-05T07:19:28.920Z,21.40
2022-09-05T07:24:06.407Z,21.90
2022-09-05T07:28:28.511Z,22.60
2022-09-05T07:32:10.883Z,23.20
2022-09-05T07:36:15.741Z,24.60
2022-09-05T07:40:26.092Z,24.70
2022-09-05T07:44:27.167Z,26.40
2022-09-05T07:48:34.923Z,27.30
2022-09-05T07:56:52.760Z,28.20
2022-09-05T07:56:53.302Z,27.20
2022-09-05T08:00:54.248Z,26.70
2022-09-05T08:04:59.128Z,26.70
2022-09-05T08:10:06.771Z,26.00
2022-09-05T08:13:34.184Z,26.80
2022-09-05T08:17:29.905Z,28.40
2022-09-05T08:21:43.812Z,27.60
2022-09-05T08:25:57.961Z,28.00
2022-09-05T08:30:22.678Z,28.30
2022-09-05T08:34:32.792Z,27.10
2022-09-05T08:38:28.050Z,27.70
2022-09-05T08:42:55.814Z,27.80
2022-09-05T08:46:59.514Z,28.20
2022-09-05T08:51:24.053Z,29.70
2022-09-05T08:55:37.227Z,29.90
2022-09-05T09:00:19.519Z,28.20
2022-09-05T09:04:14.567Z,27.90
2022-09-05T09:08:46.775Z,28.50
2022-09-05T09:13:00.006Z,27.90
2022-09-05T09:17:26.186Z,28.70
2022-09-05T09:21:52.640Z,29.20
2022-09-05T09:26:16.184Z,28.60
2022-09-05T09:30:18.410Z,27.40
2022-09-05T09:34:28.921Z,28.10
2022-09-05T09:38:37.090Z,28.70
2022-09-05T09:43:02.326Z,27.60
2022-09-05T09:47:08.313Z,29.60
2022-09-05T09:51:31.115Z,30.40
2022-09-05T09:55:52.610Z,29.70
2022-09-05T10:00:22.586Z,28.80
2022-09-05T10:10:38.103Z,28.50
2022-09-05T10:11:21.581Z,28.40
2022-09-05T10:13:08.302Z,28.50
2022-09-05T10:17:25.069Z,28.90
2022-09-05T10:26:31.843Z,28.60
2022-09-05T10:32:23.266Z,29.00
2022-09-05T10:35:17.162Z,28.20
2022-09-05T10:39:26.047Z,28.70
2022-09-05T10:43:32.264Z,28.30
2022-09-05T10:47:55.115Z,28.90
2022-09-05T10:52:22.760Z,30.20
2022-09-05T10:56:28.597Z,30.10
2022-09-05T11:02:30.482Z,28.90
2022-09-05T11:05:26.498Z,29.90
2022-09-05T11:09:56.105Z,29.80
2022-09-05T11:14:02.112Z,30.00
2022-09-05T11:18:07.039Z,30.30
2022-09-05T11:22:22.894Z,30.40
2022-09-05T11:26:21.681Z,30.80
2022-09-05T11:30:30.033Z,30.50
2022-09-05T11:39:51.717Z,30.50
2022-09-05T11:39:55.070Z,31.00
2022-09-05T11:43:17.236Z,30.70
2022-09-05T11:47:44.132Z,31.10
2022-09-05T11:52:11.875Z,31.70
2022-09-05T11:56:28.967Z,31.90
2022-09-05T12:00:42.236Z,31.50
2022-09-05T12:05:49.738Z,30.90
2022-09-05T12:09:34.678Z,31.60
2022-09-05T12:13:46.395Z,30.40
2022-09-05T12:18:19.413Z,31.90
2022-09-05T12:22:31.423Z,32.70
2022-09-05T12:27:38.396Z,31.50
2022-09-05T12:30:57.136Z,32.00
2022-09-05T12:40:58.349Z,30.10
2022-09-05T12:42:09.640Z,31.30
2022-09-05T12:44:36.266Z,31.60
2022-09-05T12:47:29.522Z,33.20
2022-09-05T12:51:46.639Z,32.50
2022-09-05T12:55:44.429Z,32.60
2022-09-05T13:03:03.138Z,33.90
2022-09-05T13:04:32.381Z,34.90
2022-09-05T13:08:43.469Z,35.50
2022-09-05T13:14:57.661Z,35.10
2022-09-05T13:16:55.470Z,36.00
2022-09-05T13:21:04.484Z,35.40
2022-09-05T13:25:09.622Z,36.50
2022-09-05T13:29:14.537Z,37.80
2022-09-05T13:37:57.973Z,35.20
2022-09-05T13:37:58.445Z,33.70
2022-09-05T13:41:38.465Z,34.30
2022-09-05T13:46:14.124Z,37.10
2022-09-05T13:50:30.879Z,36.70
2022-09-05T13:54:48.927Z,35.30
2022-09-05T13:58:58.708Z,35.10
2022-09-05T14:03:39.294Z,34.90
2022-09-05T14:08:08.129Z,35.60
2022-09-05T14:12:29.788Z,35.90
2022-09-05T14:16:34.206Z,33.80
2022-09-05T14:20:59.295Z,34.10
2022-09-05T14:25:03.591Z,34.50
2022-09-05T14:29:13.510Z,36.10
2022-09-05T14:37:38.704Z,35.30
2022-09-05T14:38:09.425Z,34.10
2022-09-05T14:42:10.596Z,33.00
2022-09-05T14:46:47.363Z,32.80
2022-09-05T14:51:03.332Z,32.00
2022-09-05T14:55:23.600Z,32.60
2022-09-05T15:02:49.557Z,33.50
2022-09-05T15:03:22.589Z,34.50
2022-09-05T15:07:26.937Z,35.30
2022-09-05T15:12:22.902Z,34.80
2022-09-05T15:15:37.773Z,34.00
2022-09-05T15:20:05.014Z,33.30
2022-09-05T15:24:01.271Z,33.60
2022-09-05T15:28:06.282Z,34.80
2022-09-05T15:32:13.933Z,34.10
2022-09-05T15:36:33.699Z,32.50
2022-09-05T15:40:35.015Z,32.40
2022-09-05T15:44:53.112Z,30.70
2022-09-05T15:48:40.254Z,30.90
2022-09-05T15:52:48.114Z,31.00
2022-09-05T15:56:53.125Z,31.80
2022-09-05T16:00:57.414Z,30.30
2022-09-05T16:10:29.588Z,29.60
2022-09-05T16:10:58.080Z,29.60
2022-09-05T16:13:52.949Z,29.80
2022-09-05T16:23:12.081Z,30.80
2022-09-05T16:23:27.395Z,30.70
2022-09-05T16:26:24.994Z,29.60
2022-09-05T16:30:25.651Z,30.40
2022-09-05T16:34:31.391Z,29.20
2022-09-05T16:38:49.019Z,29.20
2022-09-05T16:42:53.124Z,30.10
2022-09-05T16:47:14.604Z,30.80
2022-09-05T16:51:37.383Z,30.00
2022-09-05T16:55:44.993Z,30.40
2022-09-05T16:59:49.927Z,29.60
2022-09-05T17:04:00.911Z,29.90
2022-09-05T17:08:26.523Z,30.00
2022-09-05T17:12:30.812Z,29.40
2022-09-05T17:16:44.929Z,29.80
2022-09-05T17:20:49.128Z,30.30
2022-09-05T17:29:18.003Z,30.60
2022-09-05T17:29:27.001Z,30.20
2022-09-05T17:33:23.379Z,29.20
2022-09-05T17:37:46.748Z,28.90
2022-09-05T17:42:12.912Z,29.00
2022-09-05T17:46:28.088Z,29.40
2022-09-05T17:50:37.972Z,29.20
2022-09-05T17:54:49.722Z,29.10
2022-09-05T17:58:49.949Z,28.90
2022-09-05T18:02:55.699Z,28.70
2022-09-05T18:07:00.626Z,28.20
2022-09-05T18:11:01.921Z,28.00
2022-09-05T18:15:07.557Z,27.90
2022-09-05T18:19:32.230Z,27.00
2022-09-05T18:23:39.313Z,27.40
2022-09-05T18:28:03.307Z,27.30
2022-09-05T18:31:43.587Z,27.00
2022-09-05T18:35:54.763Z,27.00
2022-09-05T18:40:08.237Z,26.10
2022-09-05T18:44:13.060Z,26.60
2022-09-05T18:48:17.665Z,26.50
2022-09-05T18:52:27.359Z,25.80
2022-09-05T18:56:32.216Z,25.80
2022-09-05T19:00:46.855Z,25.70
2022-09-05T19:04:48.384Z,25.10
2022-09-05T19:08:56.209Z,24.90
2022-09-05T19:13:03.982Z,25.00
2022-09-05T19:17:08.985Z,25.00
2022-09-05T19:21:15.105Z,24.80
2022-09-05T19:25:42.026Z,24.70
2022-09-05T19:37:08.888Z,24.70
2022-09-05T19:37:15.287Z,24.60
2022-09-05T19:37:58.081Z,24.40
2022-09-05T19:47:29.719Z,24.30
2022-09-05T19:47:47.383Z,24.20
2022-09-05T19:50:20.877Z,23.80
2022-09-05T19:54:31.642Z,24.10
2022-09-05T19:58:33.145Z,24.00
2022-09-05T20:02:34.562Z,23.30
2022-09-05T20:06:38.033Z,23.70
2022-09-05T20:10:39.642Z,23.50
2022-09-05T20:14:41.588Z,23.30
2022-09-05T20:18:43.911Z,23.10
2022-09-05T20:22:50.705Z,23.30
2022-09-05T20:26:51.428Z,22.80
2022-09-05T20:30:58.990Z,22.90
2022-09-05T20:37:18.465Z,23.00
2022-09-05T20:43:22.462Z,23.10
2022-09-05T20:43:35.156Z,22.90
2022-09-05T20:54:04.329Z,22.30
2022-09-05T20:54:23.434Z,22.70
2022-09-05T20:55:40.070Z,22.60
2022-09-05T20:59:41.034Z,22.50
2022-09-05T21:03:54.748Z,22.20
2022-09-05T21:08:15.120Z,21.80
2022-09-05T21:12:22.833Z,22.10
2022-09-05T21:16:32.759Z,22.20
2022-09-05T21:20:35.478Z,22.10
2022-09-05T21:24:36.596Z,21.90
2022-09-05T21:28:39.652Z,22.00
2022-09-05T21:32:41.953Z,21.90
2022-09-05T21:36:43.290Z,22.00
2022-09-05T21:40:52.585Z,21.90
2022-09-05T21:47:38.480Z,22.00
2022-09-05T21:48:56.852Z,22.20
2022-09-05T21:53:11.892Z,22.30
2022-09-05T21:59:29.833Z,22.20
2022-09-05T22:01:11.051Z,22.10
2022-09-05T22:05:12.926Z,22.10
2022-09-05T22:09:16.655Z,21.80
2022-09-05T22:13:18.203Z,21.40
2022-09-05T22:17:21.543Z,21.90
2022-09-05T22:21:34.053Z,21.80
2022-09-05T22:25:33.608Z,21.60
2022-09-05T22:29:35.064Z,21.60
2022-09-05T22:33:36.292Z,21.50
2022-09-05T22:37:38.724Z,21.30
2022-09-05T22:41:39.648Z,21.30
2022-09-05T22:45:40.968Z,21.30
2022-09-05T22:49:41.894Z,20.80
2022-09-05T22:53:43.332Z,20.50
2022-09-05T22:57:44.357Z,20.80
2022-09-05T23:01:45.447Z,20.90
2022-09-05T23:05:46.905Z,21.00
2022-09-05T23:09:47.907Z,21.10
2022-09-05T23:13:49.036Z,21.10
2022-09-05T23:17:56.234Z,20.60
2022-09-05T23:21:57.144Z,20.10
2022-09-05T23:26:03.452Z,19.90
2022-09-05T23:30:06.610Z,20.80
2022-09-05T23:34:07.642Z,21.00
2022-09-05T23:38:11.101Z,20.90
2022-09-05T23:42:12.133Z,20.90
2022-09-05T23:46:13.412Z,20.80
2022-09-05T23:50:15.217Z,19.00
2022-09-05T23:54:16.318Z,19.40
2022-09-05T23:58:17.358Z,19.90
